Hollowayville, Illinois
Current Conditions -  °F | °C
As of 7:35 PM on Friday 24 Oct 2014 (Local Time) from KVYS Reporting Station
Overcast Overcast  
Wind Chill: 60°   Ceiling: 4100
Heat Index: 60°   Visibility: 10mi
Dew Point: 48°   Wind: 12mph
Humidity: 64%   Direction: 180°S
Pressure: 29.96"   Gusts: NA
Location:  41.3609°N, 89.3981°W
Report Text: KVYS 250035Z AUTO 18010KT 10SM BKN041 BKN060 OVC070 16/09 A2996 RMK AO2 T01550087
Loading
Personal Weather Stations






























Interactive Weather Map
Tropical Storm Tracking
New forecast layout! Learn more

10-Day Weather Forecast

Advertisements
Track Severe Weather on mobile